sensor_id;sensor_type;location;lat;lon;timestamp;P1;durP1;ratioP1;P2;durP2;ratioP2
6651;SDS011;3362;50.892;10.692;2022-12-05T00:01:10;16.55;;;6.65;;
6651;SDS011;3362;50.892;10.692;2022-12-05T00:03:36;14.07;;;6.82;;
6651;SDS011;3362;50.892;10.692;2022-12-05T00:06:03;17.90;;;7.68;;
6651;SDS011;3362;50.892;10.692;2022-12-05T00:08:29;15.70;;;7.32;;
6651;SDS011;3362;50.892;10.692;2022-12-05T00:10:55;16.98;;;7.10;;
6651;SDS011;3362;50.892;10.692;2022-12-05T00:13:22;20.40;;;7.88;;
6651;SDS011;3362;50.892;10.692;2022-12-05T00:15:48;19.00;;;7.90;;
6651;SDS011;3362;50.892;10.692;2022-12-05T00:18:16;17.42;;;7.63;;
6651;SDS011;3362;50.892;10.692;2022-12-05T00:20:43;15.63;;;8.23;;
6651;SDS011;3362;50.892;10.692;2022-12-05T00:23:09;14.02;;;7.35;;
6651;SDS011;3362;50.892;10.692;2022-12-05T00:25:36;18.77;;;7.57;;
6651;SDS011;3362;50.892;10.692;2022-12-05T00:28:02;16.73;;;8.18;;
6651;SDS011;3362;50.892;10.692;2022-12-05T00:30:28;19.35;;;7.63;;
6651;SDS011;3362;50.892;10.692;2022-12-05T00:32:55;21.73;;;8.70;;
6651;SDS011;3362;50.892;10.692;2022-12-05T00:35:23;16.88;;;7.65;;
6651;SDS011;3362;50.892;10.692;2022-12-05T00:37:49;20.80;;;8.60;;
6651;SDS011;3362;50.892;10.692;2022-12-05T00:40:16;17.08;;;7.97;;
6651;SDS011;3362;50.892;10.692;2022-12-05T00:42:42;18.95;;;7.85;;
6651;SDS011;3362;50.892;10.692;2022-12-05T00:45:09;19.02;;;7.55;;
6651;SDS011;3362;50.892;10.692;2022-12-05T00:47:35;18.73;;;7.75;;
6651;SDS011;3362;50.892;10.692;2022-12-05T00:50:02;16.25;;;8.13;;
6651;SDS011;3362;50.892;10.692;2022-12-05T00:52:29;15.88;;;7.07;;
6651;SDS011;3362;50.892;10.692;2022-12-05T00:54:56;14.63;;;7.38;;
6651;SDS011;3362;50.892;10.692;2022-12-05T00:57:22;15.68;;;7.50;;
6651;SDS011;3362;50.892;10.692;2022-12-05T00:59:48;17.67;;;7.97;;
6651;SDS011;3362;50.892;10.692;2022-12-05T01:02:15;20.60;;;7.68;;
6651;SDS011;3362;50.892;10.692;2022-12-05T01:04:41;16.80;;;7.40;;
6651;SDS011;3362;50.892;10.692;2022-12-05T01:07:08;17.23;;;7.47;;
6651;SDS011;3362;50.892;10.692;2022-12-05T01:09:35;16.15;;;7.55;;
6651;SDS011;3362;50.892;10.692;2022-12-05T01:12:02;16.85;;;6.70;;
6651;SDS011;3362;50.892;10.692;2022-12-05T01:14:28;12.98;;;5.85;;
6651;SDS011;3362;50.892;10.692;2022-12-05T01:16:55;10.68;;;6.53;;
6651;SDS011;3362;50.892;10.692;2022-12-05T01:19:22;14.50;;;6.50;;
6651;SDS011;3362;50.892;10.692;2022-12-05T01:21:49;12.93;;;6.72;;
6651;SDS011;3362;50.892;10.692;2022-12-05T01:24:15;13.98;;;7.28;;
6651;SDS011;3362;50.892;10.692;2022-12-05T01:26:44;11.68;;;6.43;;
6651;SDS011;3362;50.892;10.692;2022-12-05T01:29:11;13.23;;;6.28;;
6651;SDS011;3362;50.892;10.692;2022-12-05T01:31:37;13.75;;;6.80;;
6651;SDS011;3362;50.892;10.692;2022-12-05T01:34:04;14.48;;;6.35;;
6651;SDS011;3362;50.892;10.692;2022-12-05T01:36:32;17.33;;;7.57;;
6651;SDS011;3362;50.892;10.692;2022-12-05T01:38:58;13.82;;;6.50;;
6651;SDS011;3362;50.892;10.692;2022-12-05T01:41:26;20.10;;;6.70;;
6651;SDS011;3362;50.892;10.692;2022-12-05T01:43:56;14.68;;;7.38;;
6651;SDS011;3362;50.892;10.692;2022-12-05T01:46:22;15.25;;;6.90;;
6651;SDS011;3362;50.892;10.692;2022-12-05T01:48:49;16.02;;;6.25;;
6651;SDS011;3362;50.892;10.692;2022-12-05T01:51:16;12.70;;;5.95;;
6651;SDS011;3362;50.892;10.692;2022-12-05T01:53:42;13.52;;;6.15;;
6651;SDS011;3362;50.892;10.692;2022-12-05T01:56:09;12.27;;;5.68;;
6651;SDS011;3362;50.892;10.692;2022-12-05T01:58:35;12.95;;;5.93;;
6651;SDS011;3362;50.892;10.692;2022-12-05T02:01:04;16.30;;;6.07;;
6651;SDS011;3362;50.892;10.692;2022-12-05T02:03:30;10.30;;;5.32;;
6651;SDS011;3362;50.892;10.692;2022-12-05T02:05:57;15.48;;;6.45;;
6651;SDS011;3362;50.892;10.692;2022-12-05T02:08:23;14.13;;;5.43;;
6651;SDS011;3362;50.892;10.692;2022-12-05T02:10:54;13.63;;;5.97;;
6651;SDS011;3362;50.892;10.692;2022-12-05T02:13:27;11.20;;;5.68;;
6651;SDS011;3362;50.892;10.692;2022-12-05T02:15:57;12.10;;;4.70;;
6651;SDS011;3362;50.892;10.692;2022-12-05T02:18:30;11.55;;;5.55;;
6651;SDS011;3362;50.892;10.692;2022-12-05T02:21:06;12.40;;;4.95;;
6651;SDS011;3362;50.892;10.692;2022-12-05T02:23:49;13.45;;;5.50;;
6651;SDS011;3362;50.892;10.692;2022-12-05T02:26:32;10.05;;;5.55;;
6651;SDS011;3362;50.892;10.692;2022-12-05T02:31:50;16.58;;;5.72;;
6651;SDS011;3362;50.892;10.692;2022-12-05T02:34:18;14.05;;;5.85;;
6651;SDS011;3362;50.892;10.692;2022-12-05T02:36:47;11.05;;;5.75;;
6651;SDS011;3362;50.892;10.692;2022-12-05T02:39:17;11.20;;;5.03;;
6651;SDS011;3362;50.892;10.692;2022-12-05T02:41:47;10.65;;;5.28;;
6651;SDS011;3362;50.892;10.692;2022-12-05T02:44:15;11.43;;;4.93;;
6651;SDS011;3362;50.892;10.692;2022-12-05T02:46:42;13.27;;;5.38;;
6651;SDS011;3362;50.892;10.692;2022-12-05T02:49:13;11.38;;;4.97;;
6651;SDS011;3362;50.892;10.692;2022-12-05T02:51:42;9.32;;;4.90;;
6651;SDS011;3362;50.892;10.692;2022-12-05T02:54:09;9.30;;;5.43;;
6651;SDS011;3362;50.892;10.692;2022-12-05T02:56:38;11.15;;;5.35;;
6651;SDS011;3362;50.892;10.692;2022-12-05T02:59:05;12.57;;;5.28;;
6651;SDS011;3362;50.892;10.692;2022-12-05T03:01:32;8.23;;;4.72;;
6651;SDS011;3362;50.892;10.692;2022-12-05T03:03:58;10.48;;;5.90;;
6651;SDS011;3362;50.892;10.692;2022-12-05T03:06:28;9.35;;;5.57;;
6651;SDS011;3362;50.892;10.692;2022-12-05T03:08:56;13.25;;;5.57;;
6651;SDS011;3362;50.892;10.692;2022-12-05T03:11:24;14.20;;;5.35;;
6651;SDS011;3362;50.892;10.692;2022-12-05T03:13:53;11.35;;;5.88;;
6651;SDS011;3362;50.892;10.692;2022-12-05T03:16:21;14.43;;;5.65;;
6651;SDS011;3362;50.892;10.692;2022-12-05T03:18:49;10.25;;;5.15;;
6651;SDS011;3362;50.892;10.692;2022-12-05T03:21:20;11.68;;;5.30;;
6651;SDS011;3362;50.892;10.692;2022-12-05T03:23:51;8.75;;;5.18;;
6651;SDS011;3362;50.892;10.692;2022-12-05T03:26:22;11.15;;;5.40;;
6651;SDS011;3362;50.892;10.692;2022-12-05T03:28:56;14.02;;;4.70;;
6651;SDS011;3362;50.892;10.692;2022-12-05T03:31:28;10.45;;;5.15;;
6651;SDS011;3362;50.892;10.692;2022-12-05T03:33:55;7.82;;;4.70;;
6651;SDS011;3362;50.892;10.692;2022-12-05T03:36:26;8.77;;;4.32;;
6651;SDS011;3362;50.892;10.692;2022-12-05T03:38:55;11.70;;;5.15;;
6651;SDS011;3362;50.892;10.692;2022-12-05T03:41:24;11.15;;;5.40;;
6651;SDS011;3362;50.892;10.692;2022-12-05T03:43:52;10.27;;;5.57;;
6651;SDS011;3362;50.892;10.692;2022-12-05T03:46:21;8.45;;;4.47;;
6651;SDS011;3362;50.892;10.692;2022-12-05T03:48:50;7.93;;;4.70;;
6651;SDS011;3362;50.892;10.692;2022-12-05T03:51:19;10.30;;;4.30;;
6651;SDS011;3362;50.892;10.692;2022-12-05T03:53:47;5.65;;;4.38;;
6651;SDS011;3362;50.892;10.692;2022-12-05T03:56:18;7.72;;;4.07;;
6651;SDS011;3362;50.892;10.692;2022-12-05T03:58:47;8.38;;;4.72;;
6651;SDS011;3362;50.892;10.692;2022-12-05T04:01:15;9.07;;;4.88;;
6651;SDS011;3362;50.892;10.692;2022-12-05T04:03:43;7.45;;;4.53;;
6651;SDS011;3362;50.892;10.692;2022-12-05T04:06:13;13.57;;;5.03;;
6651;SDS011;3362;50.892;10.692;2022-12-05T04:08:42;7.53;;;4.53;;
6651;SDS011;3362;50.892;10.692;2022-12-05T04:11:10;10.23;;;5.65;;
6651;SDS011;3362;50.892;10.692;2022-12-05T04:13:39;13.38;;;6.18;;
6651;SDS011;3362;50.892;10.692;2022-12-05T04:16:09;9.80;;;5.57;;
6651;SDS011;3362;50.892;10.692;2022-12-05T04:18:55;12.80;;;6.38;;
6651;SDS011;3362;50.892;10.692;2022-12-05T04:21:24;11.10;;;5.88;;
6651;SDS011;3362;50.892;10.692;2022-12-05T04:24:05;12.55;;;5.32;;
6651;SDS011;3362;50.892;10.692;2022-12-05T04:26:51;12.20;;;5.47;;
6651;SDS011;3362;50.892;10.692;2022-12-05T04:29:22;11.02;;;5.57;;
6651;SDS011;3362;50.892;10.692;2022-12-05T04:31:51;11.45;;;5.47;;
6651;SDS011;3362;50.892;10.692;2022-12-05T04:34:21;11.80;;;6.18;;
6651;SDS011;3362;50.892;10.692;2022-12-05T04:36:49;12.32;;;5.78;;
6651;SDS011;3362;50.892;10.692;2022-12-05T04:39:18;11.25;;;5.30;;
6651;SDS011;3362;50.892;10.692;2022-12-05T04:41:46;11.32;;;5.22;;
6651;SDS011;3362;50.892;10.692;2022-12-05T04:44:15;9.77;;;5.53;;
6651;SDS011;3362;50.892;10.692;2022-12-05T04:46:43;10.45;;;5.95;;
6651;SDS011;3362;50.892;10.692;2022-12-05T04:49:11;10.55;;;5.38;;
6651;SDS011;3362;50.892;10.692;2022-12-05T04:51:39;12.77;;;5.60;;
6651;SDS011;3362;50.892;10.692;2022-12-05T04:54:07;10.95;;;6.45;;
6651;SDS011;3362;50.892;10.692;2022-12-05T04:56:35;11.27;;;6.07;;
6651;SDS011;3362;50.892;10.692;2022-12-05T04:59:02;9.32;;;4.82;;
6651;SDS011;3362;50.892;10.692;2022-12-05T05:01:30;11.35;;;5.97;;
6651;SDS011;3362;50.892;10.692;2022-12-05T05:04:01;12.57;;;5.28;;
6651;SDS011;3362;50.892;10.692;2022-12-05T05:06:28;11.20;;;5.60;;
6651;SDS011;3362;50.892;10.692;2022-12-05T05:08:55;11.98;;;5.40;;
6651;SDS011;3362;50.892;10.692;2022-12-05T05:11:22;11.80;;;5.22;;
6651;SDS011;3362;50.892;10.692;2022-12-05T05:13:49;11.18;;;5.00;;
6651;SDS011;3362;50.892;10.692;2022-12-05T05:16:16;10.38;;;5.35;;
6651;SDS011;3362;50.892;10.692;2022-12-05T05:18:43;12.05;;;6.10;;
6651;SDS011;3362;50.892;10.692;2022-12-05T05:21:15;11.02;;;5.97;;
6651;SDS011;3362;50.892;10.692;2022-12-05T05:23:42;13.55;;;6.78;;
6651;SDS011;3362;50.892;10.692;2022-12-05T05:26:08;11.93;;;5.95;;
6651;SDS011;3362;50.892;10.692;2022-12-05T05:28:35;13.02;;;6.00;;
6651;SDS011;3362;50.892;10.692;2022-12-05T05:31:01;18.27;;;6.38;;
6651;SDS011;3362;50.892;10.692;2022-12-05T05:33:28;11.85;;;6.00;;
6651;SDS011;3362;50.892;10.692;2022-12-05T05:35:54;14.77;;;5.85;;
6651;SDS011;3362;50.892;10.692;2022-12-05T05:38:21;10.98;;;5.97;;
6651;SDS011;3362;50.892;10.692;2022-12-05T05:40:48;13.38;;;6.43;;
6651;SDS011;3362;50.892;10.692;2022-12-05T05:43:14;14.35;;;6.75;;
6651;SDS011;3362;50.892;10.692;2022-12-05T05:45:40;14.95;;;5.97;;
6651;SDS011;3362;50.892;10.692;2022-12-05T05:48:07;11.98;;;6.00;;
6651;SDS011;3362;50.892;10.692;2022-12-05T05:50:33;13.38;;;5.65;;
6651;SDS011;3362;50.892;10.692;2022-12-05T05:52:59;17.60;;;7.63;;
6651;SDS011;3362;50.892;10.692;2022-12-05T05:55:27;13.35;;;5.32;;
6651;SDS011;3362;50.892;10.692;2022-12-05T05:57:53;13.02;;;6.32;;
6651;SDS011;3362;50.892;10.692;2022-12-05T06:00:19;11.20;;;5.72;;
6651;SDS011;3362;50.892;10.692;2022-12-05T06:02:46;10.80;;;5.13;;
6651;SDS011;3362;50.892;10.692;2022-12-05T06:05:12;12.23;;;5.75;;
6651;SDS011;3362;50.892;10.692;2022-12-05T06:07:38;12.57;;;5.82;;
6651;SDS011;3362;50.892;10.692;2022-12-05T06:10:05;12.52;;;5.78;;
6651;SDS011;3362;50.892;10.692;2022-12-05T06:12:33;15.15;;;6.43;;
6651;SDS011;3362;50.892;10.692;2022-12-05T06:14:59;12.80;;;6.13;;
6651;SDS011;3362;50.892;10.692;2022-12-05T06:17:25;14.73;;;6.32;;
6651;SDS011;3362;50.892;10.692;2022-12-05T06:19:51;16.05;;;7.05;;
6651;SDS011;3362;50.892;10.692;2022-12-05T06:22:18;14.32;;;6.88;;
6651;SDS011;3362;50.892;10.692;2022-12-05T06:24:44;14.75;;;7.28;;
6651;SDS011;3362;50.892;10.692;2022-12-05T06:27:10;19.50;;;7.57;;
6651;SDS011;3362;50.892;10.692;2022-12-05T06:29:38;14.73;;;6.55;;
6651;SDS011;3362;50.892;10.692;2022-12-05T06:32:04;17.63;;;7.05;;
6651;SDS011;3362;50.892;10.692;2022-12-05T06:34:30;18.42;;;7.13;;
6651;SDS011;3362;50.892;10.692;2022-12-05T06:36:59;18.70;;;8.07;;
6651;SDS011;3362;50.892;10.692;2022-12-05T06:39:25;16.05;;;6.28;;
6651;SDS011;3362;50.892;10.692;2022-12-05T06:41:52;15.43;;;7.43;;
6651;SDS011;3362;50.892;10.692;2022-12-05T06:44:18;14.32;;;6.78;;
6651;SDS011;3362;50.892;10.692;2022-12-05T06:46:47;21.98;;;7.60;;
6651;SDS011;3362;50.892;10.692;2022-12-05T06:49:13;13.52;;;5.35;;
6651;SDS011;3362;50.892;10.692;2022-12-05T06:51:39;11.85;;;6.13;;
6651;SDS011;3362;50.892;10.692;2022-12-05T06:54:05;17.38;;;7.25;;
6651;SDS011;3362;50.892;10.692;2022-12-05T06:56:32;12.25;;;6.38;;
6651;SDS011;3362;50.892;10.692;2022-12-05T06:58:58;14.65;;;6.65;;
6651;SDS011;3362;50.892;10.692;2022-12-05T07:01:24;19.35;;;7.78;;
6651;SDS011;3362;50.892;10.692;2022-12-05T07:04:08;15.02;;;7.10;;
6651;SDS011;3362;50.892;10.692;2022-12-05T07:06:35;20.88;;;7.22;;
6651;SDS011;3362;50.892;10.692;2022-12-05T07:09:02;12.65;;;6.57;;
6651;SDS011;3362;50.892;10.692;2022-12-05T07:11:29;7.32;;;5.20;;
6651;SDS011;3362;50.892;10.692;2022-12-05T07:13:55;13.43;;;6.80;;
6651;SDS011;3362;50.892;10.692;2022-12-05T07:16:22;14.50;;;5.40;;
6651;SDS011;3362;50.892;10.692;2022-12-05T07:18:48;14.98;;;7.68;;
6651;SDS011;3362;50.892;10.692;2022-12-05T07:21:16;15.50;;;5.95;;
6651;SDS011;3362;50.892;10.692;2022-12-05T07:23:44;13.25;;;5.57;;
6651;SDS011;3362;50.892;10.692;2022-12-05T07:26:12;12.50;;;6.43;;
6651;SDS011;3362;50.892;10.692;2022-12-05T07:28:39;11.80;;;6.07;;
6651;SDS011;3362;50.892;10.692;2022-12-05T07:31:06;12.25;;;5.82;;
6651;SDS011;3362;50.892;10.692;2022-12-05T07:33:32;15.93;;;7.35;;
6651;SDS011;3362;50.892;10.692;2022-12-05T07:35:59;11.63;;;6.55;;
6651;SDS011;3362;50.892;10.692;2022-12-05T07:38:27;11.38;;;5.88;;
6651;SDS011;3362;50.892;10.692;2022-12-05T07:40:53;11.32;;;5.97;;
6651;SDS011;3362;50.892;10.692;2022-12-05T07:43:19;10.38;;;6.20;;
6651;SDS011;3362;50.892;10.692;2022-12-05T07:45:46;11.77;;;6.88;;
6651;SDS011;3362;50.892;10.692;2022-12-05T07:48:12;16.58;;;8.05;;
6651;SDS011;3362;50.892;10.692;2022-12-05T07:50:38;16.55;;;8.45;;
6651;SDS011;3362;50.892;10.692;2022-12-05T07:53:04;13.95;;;8.27;;
6651;SDS011;3362;50.892;10.692;2022-12-05T07:55:32;9.05;;;6.32;;
6651;SDS011;3362;50.892;10.692;2022-12-05T07:57:58;15.15;;;7.13;;
6651;SDS011;3362;50.892;10.692;2022-12-05T08:00:24;10.05;;;6.57;;
6651;SDS011;3362;50.892;10.692;2022-12-05T08:02:51;10.18;;;5.97;;
6651;SDS011;3362;50.892;10.692;2022-12-05T08:05:17;10.30;;;6.20;;
6651;SDS011;3362;50.892;10.692;2022-12-05T08:07:43;14.18;;;6.85;;
6651;SDS011;3362;50.892;10.692;2022-12-05T08:10:10;12.88;;;5.82;;
6651;SDS011;3362;50.892;10.692;2022-12-05T08:12:38;17.40;;;6.50;;
6651;SDS011;3362;50.892;10.692;2022-12-05T08:15:05;13.48;;;6.95;;
6651;SDS011;3362;50.892;10.692;2022-12-05T08:17:31;16.13;;;6.97;;
6651;SDS011;3362;50.892;10.692;2022-12-05T08:19:57;12.68;;;6.53;;
6651;SDS011;3362;50.892;10.692;2022-12-05T08:22:24;11.20;;;6.05;;
6651;SDS011;3362;50.892;10.692;2022-12-05T08:24:50;16.42;;;6.88;;
6651;SDS011;3362;50.892;10.692;2022-12-05T08:27:16;15.65;;;6.63;;
6651;SDS011;3362;50.892;10.692;2022-12-05T08:29:44;17.27;;;6.82;;
6651;SDS011;3362;50.892;10.692;2022-12-05T08:32:10;14.95;;;8.02;;
6651;SDS011;3362;50.892;10.692;2022-12-05T08:34:37;12.75;;;6.82;;
6651;SDS011;3362;50.892;10.692;2022-12-05T08:37:03;15.82;;;7.45;;
6651;SDS011;3362;50.892;10.692;2022-12-05T08:39:29;15.63;;;6.25;;
6651;SDS011;3362;50.892;10.692;2022-12-05T08:41:56;11.35;;;5.75;;
6651;SDS011;3362;50.892;10.692;2022-12-05T08:44:22;17.90;;;6.45;;
6651;SDS011;3362;50.892;10.692;2022-12-05T08:46:50;18.70;;;7.45;;
6651;SDS011;3362;50.892;10.692;2022-12-05T08:49:16;16.52;;;7.82;;
6651;SDS011;3362;50.892;10.692;2022-12-05T08:51:43;15.45;;;6.68;;
6651;SDS011;3362;50.892;10.692;2022-12-05T08:54:10;17.50;;;7.28;;
6651;SDS011;3362;50.892;10.692;2022-12-05T08:56:36;21.67;;;7.40;;
6651;SDS011;3362;50.892;10.692;2022-12-05T08:59:03;18.60;;;7.18;;
6651;SDS011;3362;50.892;10.692;2022-12-05T09:01:30;21.25;;;8.68;;
6651;SDS011;3362;50.892;10.692;2022-12-05T09:03:58;18.25;;;8.20;;
6651;SDS011;3362;50.892;10.692;2022-12-05T09:06:26;17.85;;;7.28;;
6651;SDS011;3362;50.892;10.692;2022-12-05T09:08:53;17.85;;;8.65;;
6651;SDS011;3362;50.892;10.692;2022-12-05T09:11:20;14.95;;;6.00;;
6651;SDS011;3362;50.892;10.692;2022-12-05T09:13:48;12.88;;;6.03;;
6651;SDS011;3362;50.892;10.692;2022-12-05T09:16:15;16.55;;;8.00;;
6651;SDS011;3362;50.892;10.692;2022-12-05T09:18:42;16.33;;;6.60;;
6651;SDS011;3362;50.892;10.692;2022-12-05T09:21:11;16.38;;;6.50;;
6651;SDS011;3362;50.892;10.692;2022-12-05T09:23:37;13.50;;;6.88;;
6651;SDS011;3362;50.892;10.692;2022-12-05T09:26:04;16.02;;;7.30;;
6651;SDS011;3362;50.892;10.692;2022-12-05T09:28:31;13.30;;;7.60;;
6651;SDS011;3362;50.892;10.692;2022-12-05T09:30:57;10.23;;;5.57;;
6651;SDS011;3362;50.892;10.692;2022-12-05T09:33:25;15.43;;;6.30;;
6651;SDS011;3362;50.892;10.692;2022-12-05T09:35:51;17.38;;;8.07;;
6651;SDS011;3362;50.892;10.692;2022-12-05T09:38:19;17.58;;;8.48;;
6651;SDS011;3362;50.892;10.692;2022-12-05T09:40:46;19.35;;;8.25;;
6651;SDS011;3362;50.892;10.692;2022-12-05T09:43:18;17.83;;;8.75;;
6651;SDS011;3362;50.892;10.692;2022-12-05T09:45:50;15.55;;;8.50;;
6651;SDS011;3362;50.892;10.692;2022-12-05T09:48:19;13.50;;;7.65;;
6651;SDS011;3362;50.892;10.692;2022-12-05T09:50:47;25.33;;;11.90;;
6651;SDS011;3362;50.892;10.692;2022-12-05T09:53:17;50.10;;;17.65;;
6651;SDS011;3362;50.892;10.692;2022-12-05T09:55:50;36.47;;;14.80;;
6651;SDS011;3362;50.892;10.692;2022-12-05T09:58:25;25.05;;;12.35;;
6651;SDS011;3362;50.892;10.692;2022-12-05T10:00:53;20.80;;;10.50;;
6651;SDS011;3362;50.892;10.692;2022-12-05T10:03:25;16.20;;;9.77;;
6651;SDS011;3362;50.892;10.692;2022-12-05T10:05:56;16.85;;;8.65;;
6651;SDS011;3362;50.892;10.692;2022-12-05T10:08:27;14.43;;;7.50;;
6651;SDS011;3362;50.892;10.692;2022-12-05T10:10:58;16.85;;;8.82;;
6651;SDS011;3362;50.892;10.692;2022-12-05T10:13:37;14.55;;;8.75;;
6651;SDS011;3362;50.892;10.692;2022-12-05T10:16:07;18.23;;;9.23;;
6651;SDS011;3362;50.892;10.692;2022-12-05T10:18:36;14.38;;;8.23;;
6651;SDS011;3362;50.892;10.692;2022-12-05T10:21:09;14.10;;;7.88;;
6651;SDS011;3362;50.892;10.692;2022-12-05T10:23:37;15.23;;;7.15;;
6651;SDS011;3362;50.892;10.692;2022-12-05T10:26:10;14.88;;;7.30;;
6651;SDS011;3362;50.892;10.692;2022-12-05T10:28:39;15.77;;;8.02;;
6651;SDS011;3362;50.892;10.692;2022-12-05T10:31:07;17.33;;;8.25;;
6651;SDS011;3362;50.892;10.692;2022-12-05T10:33:36;15.30;;;7.65;;
6651;SDS011;3362;50.892;10.692;2022-12-05T10:36:08;11.95;;;6.93;;
6651;SDS011;3362;50.892;10.692;2022-12-05T10:38:34;15.88;;;6.95;;
6651;SDS011;3362;50.892;10.692;2022-12-05T10:41:02;14.50;;;7.38;;
6651;SDS011;3362;50.892;10.692;2022-12-05T10:43:31;13.70;;;6.97;;
6651;SDS011;3362;50.892;10.692;2022-12-05T10:45:58;12.80;;;6.30;;
6651;SDS011;3362;50.892;10.692;2022-12-05T10:48:25;13.60;;;7.05;;
6651;SDS011;3362;50.892;10.692;2022-12-05T10:50:52;14.55;;;6.50;;
6651;SDS011;3362;50.892;10.692;2022-12-05T10:53:20;13.88;;;6.93;;
6651;SDS011;3362;50.892;10.692;2022-12-05T10:55:48;14.75;;;6.70;;
6651;SDS011;3362;50.892;10.692;2022-12-05T10:58:16;14.15;;;7.97;;
6651;SDS011;3362;50.892;10.692;2022-12-05T11:00:47;13.73;;;7.40;;
6651;SDS011;3362;50.892;10.692;2022-12-05T11:03:20;15.70;;;7.72;;
6651;SDS011;3362;50.892;10.692;2022-12-05T11:05:48;11.70;;;6.43;;
6651;SDS011;3362;50.892;10.692;2022-12-05T11:08:20;14.40;;;7.03;;
6651;SDS011;3362;50.892;10.692;2022-12-05T11:10:46;15.73;;;7.63;;
6651;SDS011;3362;50.892;10.692;2022-12-05T11:13:13;15.98;;;7.57;;
6651;SDS011;3362;50.892;10.692;2022-12-05T11:15:43;14.13;;;7.22;;
6651;SDS011;3362;50.892;10.692;2022-12-05T11:18:17;10.10;;;6.35;;
6651;SDS011;3362;50.892;10.692;2022-12-05T11:20:44;13.82;;;7.25;;
6651;SDS011;3362;50.892;10.692;2022-12-05T11:23:21;14.02;;;7.22;;
6651;SDS011;3362;50.892;10.692;2022-12-05T11:25:48;14.55;;;6.43;;
6651;SDS011;3362;50.892;10.692;2022-12-05T11:31:09;17.30;;;8.50;;
6651;SDS011;3362;50.892;10.692;2022-12-05T11:33:45;16.20;;;7.53;;
6651;SDS011;3362;50.892;10.692;2022-12-05T11:36:27;22.92;;;11.05;;
6651;SDS011;3362;50.892;10.692;2022-12-05T11:38:56;20.65;;;12.15;;
6651;SDS011;3362;50.892;10.692;2022-12-05T11:41:29;29.33;;;13.13;;
6651;SDS011;3362;50.892;10.692;2022-12-05T11:44:11;23.85;;;11.82;;
6651;SDS011;3362;50.892;10.692;2022-12-05T11:46:45;19.25;;;10.88;;
6651;SDS011;3362;50.892;10.692;2022-12-05T11:49:19;24.48;;;12.25;;
6651;SDS011;3362;50.892;10.692;2022-12-05T11:51:48;19.50;;;10.40;;
6651;SDS011;3362;50.892;10.692;2022-12-05T11:57:10;14.43;;;8.38;;
6651;SDS011;3362;50.892;10.692;2022-12-05T12:02:27;16.63;;;7.75;;
6651;SDS011;3362;50.892;10.692;2022-12-05T12:04:59;11.80;;;7.13;;
6651;SDS011;3362;50.892;10.692;2022-12-05T12:07:33;15.68;;;6.93;;
6651;SDS011;3362;50.892;10.692;2022-12-05T12:10:06;13.60;;;6.57;;
6651;SDS011;3362;50.892;10.692;2022-12-05T12:12:36;11.65;;;6.50;;
6651;SDS011;3362;50.892;10.692;2022-12-05T12:15:09;13.52;;;7.65;;
6651;SDS011;3362;50.892;10.692;2022-12-05T12:17:43;15.40;;;7.07;;
6651;SDS011;3362;50.892;10.692;2022-12-05T12:20:17;10.57;;;6.40;;
6651;SDS011;3362;50.892;10.692;2022-12-05T12:22:51;15.30;;;8.00;;
6651;SDS011;3362;50.892;10.692;2022-12-05T12:25:24;12.57;;;7.22;;
6651;SDS011;3362;50.892;10.692;2022-12-05T12:27:55;13.02;;;7.75;;
6651;SDS011;3362;50.892;10.692;2022-12-05T12:30:26;17.17;;;7.70;;
6651;SDS011;3362;50.892;10.692;2022-12-05T12:32:56;11.55;;;7.10;;
6651;SDS011;3362;50.892;10.692;2022-12-05T12:35:28;17.25;;;8.52;;
6651;SDS011;3362;50.892;10.692;2022-12-05T12:37:59;16.80;;;8.15;;
6651;SDS011;3362;50.892;10.692;2022-12-05T12:40:28;16.73;;;8.60;;
6651;SDS011;3362;50.892;10.692;2022-12-05T12:43:00;15.57;;;8.52;;
6651;SDS011;3362;50.892;10.692;2022-12-05T12:45:31;18.20;;;9.00;;
6651;SDS011;3362;50.892;10.692;2022-12-05T12:48:07;20.77;;;10.20;;
6651;SDS011;3362;50.892;10.692;2022-12-05T12:50:38;19.67;;;8.77;;
6651;SDS011;3362;50.892;10.692;2022-12-05T12:55:48;14.82;;;6.85;;
6651;SDS011;3362;50.892;10.692;2022-12-05T12:58:31;14.55;;;7.90;;
6651;SDS011;3362;50.892;10.692;2022-12-05T13:01:04;16.38;;;8.40;;
6651;SDS011;3362;50.892;10.692;2022-12-05T13:03:32;15.48;;;7.53;;
6651;SDS011;3362;50.892;10.692;2022-12-05T13:06:05;12.95;;;6.68;;
6651;SDS011;3362;50.892;10.692;2022-12-05T13:08:36;12.38;;;7.07;;
6651;SDS011;3362;50.892;10.692;2022-12-05T13:11:05;10.82;;;6.72;;
6651;SDS011;3362;50.892;10.692;2022-12-05T13:13:34;14.20;;;6.85;;
6651;SDS011;3362;50.892;10.692;2022-12-05T13:16:03;12.30;;;6.03;;
6651;SDS011;3362;50.892;10.692;2022-12-05T13:18:31;11.25;;;6.43;;
6651;SDS011;3362;50.892;10.692;2022-12-05T13:20:59;14.48;;;6.93;;
6651;SDS011;3362;50.892;10.692;2022-12-05T13:23:27;12.02;;;6.63;;
6651;SDS011;3362;50.892;10.692;2022-12-05T13:25:55;15.57;;;6.95;;
6651;SDS011;3362;50.892;10.692;2022-12-05T13:28:24;14.48;;;7.10;;
6651;SDS011;3362;50.892;10.692;2022-12-05T13:30:51;17.42;;;7.70;;
6651;SDS011;3362;50.892;10.692;2022-12-05T13:33:26;13.77;;;7.47;;
6651;SDS011;3362;50.892;10.692;2022-12-05T13:35:54;12.50;;;7.10;;
6651;SDS011;3362;50.892;10.692;2022-12-05T13:38:39;13.15;;;5.88;;
6651;SDS011;3362;50.892;10.692;2022-12-05T13:41:32;12.20;;;6.28;;
6651;SDS011;3362;50.892;10.692;2022-12-05T13:44:24;10.85;;;6.43;;
6651;SDS011;3362;50.892;10.692;2022-12-05T13:46:51;12.95;;;6.13;;
6651;SDS011;3362;50.892;10.692;2022-12-05T13:49:19;9.90;;;5.75;;
6651;SDS011;3362;50.892;10.692;2022-12-05T13:51:47;9.80;;;5.97;;
6651;SDS011;3362;50.892;10.692;2022-12-05T13:54:15;10.95;;;5.60;;
6651;SDS011;3362;50.892;10.692;2022-12-05T13:56:48;10.48;;;6.18;;
6651;SDS011;3362;50.892;10.692;2022-12-05T14:01:55;10.55;;;6.03;;
6651;SDS011;3362;50.892;10.692;2022-12-05T14:07:09;11.40;;;5.35;;
6651;SDS011;3362;50.892;10.692;2022-12-05T14:15:28;9.05;;;5.15;;
6651;SDS011;3362;50.892;10.692;2022-12-05T14:17:55;11.95;;;6.03;;
6651;SDS011;3362;50.892;10.692;2022-12-05T14:20:24;10.93;;;6.57;;
6651;SDS011;3362;50.892;10.692;2022-12-05T14:22:58;10.25;;;5.50;;
6651;SDS011;3362;50.892;10.692;2022-12-05T14:28:18;9.40;;;4.32;;
6651;SDS011;3362;50.892;10.692;2022-12-05T14:30:50;13.77;;;6.45;;
6651;SDS011;3362;50.892;10.692;2022-12-05T14:33:22;9.48;;;5.55;;
6651;SDS011;3362;50.892;10.692;2022-12-05T14:35:49;9.75;;;4.72;;
6651;SDS011;3362;50.892;10.692;2022-12-05T14:38:18;10.82;;;5.57;;
6651;SDS011;3362;50.892;10.692;2022-12-05T14:40:45;10.00;;;5.10;;
6651;SDS011;3362;50.892;10.692;2022-12-05T14:43:16;9.95;;;5.82;;
6651;SDS011;3362;50.892;10.692;2022-12-05T14:45:44;7.65;;;5.75;;
6651;SDS011;3362;50.892;10.692;2022-12-05T14:48:24;11.25;;;6.40;;
6651;SDS011;3362;50.892;10.692;2022-12-05T14:50:51;14.20;;;7.43;;
6651;SDS011;3362;50.892;10.692;2022-12-05T14:53:23;13.02;;;6.03;;
6651;SDS011;3362;50.892;10.692;2022-12-05T14:55:52;12.05;;;6.35;;
6651;SDS011;3362;50.892;10.692;2022-12-05T14:58:20;11.77;;;6.45;;
6651;SDS011;3362;50.892;10.692;2022-12-05T15:00:52;10.23;;;6.28;;
6651;SDS011;3362;50.892;10.692;2022-12-05T15:03:20;10.60;;;5.80;;
6651;SDS011;3362;50.892;10.692;2022-12-05T15:05:49;10.45;;;5.78;;
6651;SDS011;3362;50.892;10.692;2022-12-05T15:08:16;10.65;;;5.38;;
6651;SDS011;3362;50.892;10.692;2022-12-05T15:10:42;9.77;;;5.85;;
6651;SDS011;3362;50.892;10.692;2022-12-05T15:13:11;13.18;;;6.25;;
6651;SDS011;3362;50.892;10.692;2022-12-05T15:15:40;14.75;;;6.65;;
6651;SDS011;3362;50.892;10.692;2022-12-05T15:18:08;10.57;;;5.65;;
6651;SDS011;3362;50.892;10.692;2022-12-05T15:20:37;12.55;;;6.50;;
6651;SDS011;3362;50.892;10.692;2022-12-05T15:25:51;7.82;;;5.53;;
6651;SDS011;3362;50.892;10.692;2022-12-05T15:28:18;10.05;;;4.93;;